sensor_id;sensor_type;location;lat;lon;timestamp;P1;durP1;ratioP1;P2;durP2;ratioP2
25905;SDS011;13713;52.552;13.204;2022-10-18T00:00:37;66.30;;;27.27;;
25905;SDS011;13713;52.552;13.204;2022-10-18T00:03:03;66.93;;;28.50;;
25905;SDS011;13713;52.552;13.204;2022-10-18T00:05:29;65.43;;;27.55;;
25905;SDS011;13713;52.552;13.204;2022-10-18T00:07:54;65.50;;;28.17;;
25905;SDS011;13713;52.552;13.204;2022-10-18T00:10:20;63.53;;;26.33;;
25905;SDS011;13713;52.552;13.204;2022-10-18T00:12:45;64.93;;;27.40;;
25905;SDS011;13713;52.552;13.204;2022-10-18T00:15:11;64.95;;;28.38;;
25905;SDS011;13713;52.552;13.204;2022-10-18T00:17:37;60.75;;;26.80;;
25905;SDS011;13713;52.552;13.204;2022-10-18T00:20:04;60.00;;;26.48;;
25905;SDS011;13713;52.552;13.204;2022-10-18T00:22:30;65.20;;;26.98;;
25905;SDS011;13713;52.552;13.204;2022-10-18T00:24:58;61.72;;;26.52;;
25905;SDS011;13713;52.552;13.204;2022-10-18T00:27:24;58.67;;;26.48;;
25905;SDS011;13713;52.552;13.204;2022-10-18T00:29:53;57.67;;;25.60;;
25905;SDS011;13713;52.552;13.204;2022-10-18T00:32:18;64.32;;;27.70;;
25905;SDS011;13713;52.552;13.204;2022-10-18T00:34:44;60.05;;;25.60;;
25905;SDS011;13713;52.552;13.204;2022-10-18T00:37:10;56.42;;;25.20;;
25905;SDS011;13713;52.552;13.204;2022-10-18T00:39:35;60.75;;;25.58;;
25905;SDS011;13713;52.552;13.204;2022-10-18T00:42:01;64.63;;;25.02;;
25905;SDS011;13713;52.552;13.204;2022-10-18T00:47:12;56.45;;;24.75;;
25905;SDS011;13713;52.552;13.204;2022-10-18T00:49:45;58.25;;;25.90;;
25905;SDS011;13713;52.552;13.204;2022-10-18T00:54:43;56.03;;;24.48;;
25905;SDS011;13713;52.552;13.204;2022-10-18T00:57:10;58.25;;;25.52;;
25905;SDS011;13713;52.552;13.204;2022-10-18T00:59:36;54.65;;;24.65;;
25905;SDS011;13713;52.552;13.204;2022-10-18T01:02:03;55.30;;;25.17;;
25905;SDS011;13713;52.552;13.204;2022-10-18T01:04:30;54.55;;;24.80;;
25905;SDS011;13713;52.552;13.204;2022-10-18T01:07:05;52.55;;;23.98;;
25905;SDS011;13713;52.552;13.204;2022-10-18T01:15:28;52.92;;;24.70;;
25905;SDS011;13713;52.552;13.204;2022-10-18T01:21:02;54.65;;;24.83;;
25905;SDS011;13713;52.552;13.204;2022-10-18T01:26:29;51.93;;;23.93;;
25905;SDS011;13713;52.552;13.204;2022-10-18T01:29:12;53.08;;;23.85;;
25905;SDS011;13713;52.552;13.204;2022-10-18T01:31:58;48.85;;;23.08;;
25905;SDS011;13713;52.552;13.204;2022-10-18T01:34:32;53.58;;;25.48;;
25905;SDS011;13713;52.552;13.204;2022-10-18T01:37:01;50.70;;;23.00;;
25905;SDS011;13713;52.552;13.204;2022-10-18T01:39:30;51.60;;;22.63;;
25905;SDS011;13713;52.552;13.204;2022-10-18T01:42:00;52.78;;;24.73;;
25905;SDS011;13713;52.552;13.204;2022-10-18T01:44:30;45.40;;;22.48;;
25905;SDS011;13713;52.552;13.204;2022-10-18T01:46:57;51.33;;;22.42;;
25905;SDS011;13713;52.552;13.204;2022-10-18T01:49:23;47.55;;;22.88;;
25905;SDS011;13713;52.552;13.204;2022-10-18T01:51:50;45.05;;;22.20;;
25905;SDS011;13713;52.552;13.204;2022-10-18T01:54:17;46.00;;;22.10;;
25905;SDS011;13713;52.552;13.204;2022-10-18T01:56:51;46.60;;;21.45;;
25905;SDS011;13713;52.552;13.204;2022-10-18T02:07:50;51.72;;;23.08;;
25905;SDS011;13713;52.552;13.204;2022-10-18T02:13:05;48.78;;;22.38;;
25905;SDS011;13713;52.552;13.204;2022-10-18T02:15:33;47.38;;;22.08;;
25905;SDS011;13713;52.552;13.204;2022-10-18T02:18:02;41.85;;;21.10;;
25905;SDS011;13713;52.552;13.204;2022-10-18T02:20:32;46.10;;;20.57;;
25905;SDS011;13713;52.552;13.204;2022-10-18T02:23:00;47.38;;;22.58;;
25905;SDS011;13713;52.552;13.204;2022-10-18T02:25:29;43.22;;;21.17;;
25905;SDS011;13713;52.552;13.204;2022-10-18T02:27:56;45.60;;;21.83;;
25905;SDS011;13713;52.552;13.204;2022-10-18T02:30:23;45.08;;;20.98;;
25905;SDS011;13713;52.552;13.204;2022-10-18T02:33:08;42.40;;;20.42;;
25905;SDS011;13713;52.552;13.204;2022-10-18T02:35:44;44.60;;;21.48;;
25905;SDS011;13713;52.552;13.204;2022-10-18T02:38:14;49.92;;;21.88;;
25905;SDS011;13713;52.552;13.204;2022-10-18T02:40:43;45.80;;;21.02;;
25905;SDS011;13713;52.552;13.204;2022-10-18T02:43:08;42.63;;;21.17;;
25905;SDS011;13713;52.552;13.204;2022-10-18T02:45:34;42.25;;;21.25;;
25905;SDS011;13713;52.552;13.204;2022-10-18T02:48:00;44.22;;;21.38;;
25905;SDS011;13713;52.552;13.204;2022-10-18T02:50:25;37.72;;;18.65;;
25905;SDS011;13713;52.552;13.204;2022-10-18T02:52:51;44.53;;;21.80;;
25905;SDS011;13713;52.552;13.204;2022-10-18T02:55:16;44.10;;;22.05;;
25905;SDS011;13713;52.552;13.204;2022-10-18T02:57:42;41.78;;;21.30;;
25905;SDS011;13713;52.552;13.204;2022-10-18T03:00:08;44.85;;;21.00;;
25905;SDS011;13713;52.552;13.204;2022-10-18T03:02:34;37.10;;;20.15;;
25905;SDS011;13713;52.552;13.204;2022-10-18T03:04:59;39.42;;;19.92;;
25905;SDS011;13713;52.552;13.204;2022-10-18T03:07:25;43.72;;;20.70;;
25905;SDS011;13713;52.552;13.204;2022-10-18T03:09:51;41.63;;;20.40;;
25905;SDS011;13713;52.552;13.204;2022-10-18T03:12:16;39.78;;;20.73;;
25905;SDS011;13713;52.552;13.204;2022-10-18T03:14:42;39.08;;;20.30;;
25905;SDS011;13713;52.552;13.204;2022-10-18T03:17:08;42.30;;;20.25;;
25905;SDS011;13713;52.552;13.204;2022-10-18T03:19:33;41.00;;;20.45;;
25905;SDS011;13713;52.552;13.204;2022-10-18T03:21:59;38.35;;;19.80;;
25905;SDS011;13713;52.552;13.204;2022-10-18T03:24:24;35.50;;;18.83;;
25905;SDS011;13713;52.552;13.204;2022-10-18T03:26:50;43.35;;;21.17;;
25905;SDS011;13713;52.552;13.204;2022-10-18T03:29:16;40.60;;;19.23;;
25905;SDS011;13713;52.552;13.204;2022-10-18T03:31:41;41.58;;;20.35;;
25905;SDS011;13713;52.552;13.204;2022-10-18T03:34:07;36.00;;;19.75;;
25905;SDS011;13713;52.552;13.204;2022-10-18T03:36:33;37.42;;;19.50;;
25905;SDS011;13713;52.552;13.204;2022-10-18T03:38:58;42.10;;;20.17;;
25905;SDS011;13713;52.552;13.204;2022-10-18T03:41:25;43.17;;;20.15;;
25905;SDS011;13713;52.552;13.204;2022-10-18T03:43:51;36.65;;;19.73;;
25905;SDS011;13713;52.552;13.204;2022-10-18T03:46:17;37.33;;;19.02;;
25905;SDS011;13713;52.552;13.204;2022-10-18T03:48:42;36.83;;;19.42;;
25905;SDS011;13713;52.552;13.204;2022-10-18T03:51:08;34.67;;;18.63;;
25905;SDS011;13713;52.552;13.204;2022-10-18T03:53:33;35.90;;;19.02;;
25905;SDS011;13713;52.552;13.204;2022-10-18T03:55:59;37.03;;;19.65;;
25905;SDS011;13713;52.552;13.204;2022-10-18T03:58:25;38.38;;;19.20;;
25905;SDS011;13713;52.552;13.204;2022-10-18T04:00:51;38.53;;;19.35;;
25905;SDS011;13713;52.552;13.204;2022-10-18T04:03:18;36.53;;;19.15;;
25905;SDS011;13713;52.552;13.204;2022-10-18T04:05:45;37.42;;;18.63;;
25905;SDS011;13713;52.552;13.204;2022-10-18T04:08:11;30.50;;;17.65;;
25905;SDS011;13713;52.552;13.204;2022-10-18T04:10:37;33.40;;;18.08;;
25905;SDS011;13713;52.552;13.204;2022-10-18T04:13:03;34.90;;;18.92;;
25905;SDS011;13713;52.552;13.204;2022-10-18T04:15:30;37.13;;;17.63;;
25905;SDS011;13713;52.552;13.204;2022-10-18T04:17:56;37.00;;;18.52;;
25905;SDS011;13713;52.552;13.204;2022-10-18T04:20:22;32.33;;;17.02;;
25905;SDS011;13713;52.552;13.204;2022-10-18T04:22:48;32.97;;;18.38;;
25905;SDS011;13713;52.552;13.204;2022-10-18T04:25:14;34.00;;;17.90;;
25905;SDS011;13713;52.552;13.204;2022-10-18T04:27:40;35.05;;;18.88;;
25905;SDS011;13713;52.552;13.204;2022-10-18T04:30:06;35.22;;;19.25;;
25905;SDS011;13713;52.552;13.204;2022-10-18T04:32:32;38.70;;;20.42;;
25905;SDS011;13713;52.552;13.204;2022-10-18T04:34:59;37.72;;;21.13;;
25905;SDS011;13713;52.552;13.204;2022-10-18T04:37:25;35.05;;;19.75;;
25905;SDS011;13713;52.552;13.204;2022-10-18T04:39:51;35.42;;;20.88;;
25905;SDS011;13713;52.552;13.204;2022-10-18T04:42:17;36.40;;;21.13;;
25905;SDS011;13713;52.552;13.204;2022-10-18T04:44:42;40.03;;;22.60;;
25905;SDS011;13713;52.552;13.204;2022-10-18T04:47:08;39.63;;;21.25;;
25905;SDS011;13713;52.552;13.204;2022-10-18T04:49:33;42.47;;;23.02;;
25905;SDS011;13713;52.552;13.204;2022-10-18T04:51:59;33.58;;;21.20;;
25905;SDS011;13713;52.552;13.204;2022-10-18T04:54:25;45.30;;;24.27;;
25905;SDS011;13713;52.552;13.204;2022-10-18T04:56:50;41.83;;;22.77;;
25905;SDS011;13713;52.552;13.204;2022-10-18T04:59:16;37.72;;;22.10;;
25905;SDS011;13713;52.552;13.204;2022-10-18T05:01:41;37.53;;;21.83;;
25905;SDS011;13713;52.552;13.204;2022-10-18T05:04:07;40.13;;;23.25;;
25905;SDS011;13713;52.552;13.204;2022-10-18T05:06:33;41.17;;;22.42;;
25905;SDS011;13713;52.552;13.204;2022-10-18T05:08:59;42.35;;;23.67;;
25905;SDS011;13713;52.552;13.204;2022-10-18T05:11:24;40.03;;;23.58;;
25905;SDS011;13713;52.552;13.204;2022-10-18T05:13:50;42.17;;;23.45;;
25905;SDS011;13713;52.552;13.204;2022-10-18T05:16:16;41.25;;;22.63;;
25905;SDS011;13713;52.552;13.204;2022-10-18T05:18:42;38.10;;;20.83;;
25905;SDS011;13713;52.552;13.204;2022-10-18T05:21:07;37.50;;;21.52;;
25905;SDS011;13713;52.552;13.204;2022-10-18T05:23:33;38.65;;;23.83;;
25905;SDS011;13713;52.552;13.204;2022-10-18T05:26:02;37.65;;;21.40;;
25905;SDS011;13713;52.552;13.204;2022-10-18T05:28:29;37.92;;;21.75;;
25905;SDS011;13713;52.552;13.204;2022-10-18T05:30:55;37.35;;;21.58;;
25905;SDS011;13713;52.552;13.204;2022-10-18T05:33:25;38.80;;;23.17;;
25905;SDS011;13713;52.552;13.204;2022-10-18T05:35:51;36.75;;;21.42;;
25905;SDS011;13713;52.552;13.204;2022-10-18T05:38:16;37.75;;;22.20;;
25905;SDS011;13713;52.552;13.204;2022-10-18T05:40:42;36.58;;;22.05;;
25905;SDS011;13713;52.552;13.204;2022-10-18T05:43:08;39.42;;;22.63;;
25905;SDS011;13713;52.552;13.204;2022-10-18T05:45:33;35.22;;;20.77;;
25905;SDS011;13713;52.552;13.204;2022-10-18T05:47:59;36.72;;;21.50;;
25905;SDS011;13713;52.552;13.204;2022-10-18T05:50:24;37.63;;;21.55;;
25905;SDS011;13713;52.552;13.204;2022-10-18T05:52:50;34.28;;;21.27;;
25905;SDS011;13713;52.552;13.204;2022-10-18T05:55:15;37.83;;;22.10;;
25905;SDS011;13713;52.552;13.204;2022-10-18T05:57:41;32.80;;;20.75;;
25905;SDS011;13713;52.552;13.204;2022-10-18T06:00:07;35.10;;;20.77;;
25905;SDS011;13713;52.552;13.204;2022-10-18T06:02:36;39.50;;;21.25;;
25905;SDS011;13713;52.552;13.204;2022-10-18T06:05:02;35.05;;;20.70;;
25905;SDS011;13713;52.552;13.204;2022-10-18T06:07:28;39.50;;;23.45;;
25905;SDS011;13713;52.552;13.204;2022-10-18T06:09:53;38.30;;;24.42;;
25905;SDS011;13713;52.552;13.204;2022-10-18T06:12:19;38.63;;;22.45;;
25905;SDS011;13713;52.552;13.204;2022-10-18T06:14:44;35.92;;;22.80;;
25905;SDS011;13713;52.552;13.204;2022-10-18T06:17:11;43.75;;;24.50;;
25905;SDS011;13713;52.552;13.204;2022-10-18T06:19:36;42.60;;;24.42;;
25905;SDS011;13713;52.552;13.204;2022-10-18T06:22:02;42.60;;;23.70;;
25905;SDS011;13713;52.552;13.204;2022-10-18T06:24:28;41.05;;;23.33;;
25905;SDS011;13713;52.552;13.204;2022-10-18T06:26:53;41.85;;;23.52;;
25905;SDS011;13713;52.552;13.204;2022-10-18T06:29:19;42.58;;;24.77;;
25905;SDS011;13713;52.552;13.204;2022-10-18T06:31:44;40.65;;;23.15;;
25905;SDS011;13713;52.552;13.204;2022-10-18T06:34:10;38.47;;;22.35;;
25905;SDS011;13713;52.552;13.204;2022-10-18T06:36:35;44.47;;;23.65;;
25905;SDS011;13713;52.552;13.204;2022-10-18T06:39:01;42.05;;;22.65;;
25905;SDS011;13713;52.552;13.204;2022-10-18T06:41:27;38.42;;;21.02;;
25905;SDS011;13713;52.552;13.204;2022-10-18T06:43:52;30.88;;;16.63;;
25905;SDS011;13713;52.552;13.204;2022-10-18T06:46:21;38.88;;;22.17;;
25905;SDS011;13713;52.552;13.204;2022-10-18T06:48:47;38.45;;;22.50;;
25905;SDS011;13713;52.552;13.204;2022-10-18T06:51:13;46.65;;;28.67;;
25905;SDS011;13713;52.552;13.204;2022-10-18T06:53:39;69.18;;;41.22;;
25905;SDS011;13713;52.552;13.204;2022-10-18T06:56:06;65.10;;;36.65;;
25905;SDS011;13713;52.552;13.204;2022-10-18T06:58:34;63.28;;;35.03;;
25905;SDS011;13713;52.552;13.204;2022-10-18T07:01:04;72.93;;;42.05;;
25905;SDS011;13713;52.552;13.204;2022-10-18T07:03:31;64.10;;;38.63;;
25905;SDS011;13713;52.552;13.204;2022-10-18T07:05:59;64.13;;;37.15;;
25905;SDS011;13713;52.552;13.204;2022-10-18T07:08:27;75.03;;;40.05;;
25905;SDS011;13713;52.552;13.204;2022-10-18T07:10:53;72.97;;;41.05;;
25905;SDS011;13713;52.552;13.204;2022-10-18T07:13:19;69.00;;;41.80;;
25905;SDS011;13713;52.552;13.204;2022-10-18T07:15:45;67.18;;;40.08;;
25905;SDS011;13713;52.552;13.204;2022-10-18T07:18:10;66.28;;;41.13;;
25905;SDS011;13713;52.552;13.204;2022-10-18T07:20:36;69.15;;;43.38;;
25905;SDS011;13713;52.552;13.204;2022-10-18T07:23:02;84.45;;;47.10;;
25905;SDS011;13713;52.552;13.204;2022-10-18T07:25:29;74.90;;;46.20;;
25905;SDS011;13713;52.552;13.204;2022-10-18T07:27:55;87.68;;;53.58;;
25905;SDS011;13713;52.552;13.204;2022-10-18T07:30:21;86.97;;;51.15;;
25905;SDS011;13713;52.552;13.204;2022-10-18T07:32:47;90.38;;;56.67;;
25905;SDS011;13713;52.552;13.204;2022-10-18T07:35:14;95.80;;;61.28;;
25905;SDS011;13713;52.552;13.204;2022-10-18T07:37:40;90.75;;;57.60;;
25905;SDS011;13713;52.552;13.204;2022-10-18T07:40:06;102.07;;;60.75;;
25905;SDS011;13713;52.552;13.204;2022-10-18T07:42:33;103.82;;;58.03;;
25905;SDS011;13713;52.552;13.204;2022-10-18T07:44:59;118.40;;;69.53;;
25905;SDS011;13713;52.552;13.204;2022-10-18T07:47:25;108.20;;;69.18;;
25905;SDS011;13713;52.552;13.204;2022-10-18T07:49:51;120.75;;;69.28;;
25905;SDS011;13713;52.552;13.204;2022-10-18T07:52:16;122.82;;;69.50;;
25905;SDS011;13713;52.552;13.204;2022-10-18T07:54:42;122.32;;;67.57;;
25905;SDS011;13713;52.552;13.204;2022-10-18T07:57:08;110.63;;;64.68;;
25905;SDS011;13713;52.552;13.204;2022-10-18T07:59:33;118.05;;;64.43;;
25905;SDS011;13713;52.552;13.204;2022-10-18T08:01:59;118.55;;;63.78;;
25905;SDS011;13713;52.552;13.204;2022-10-18T08:04:24;115.38;;;61.75;;
25905;SDS011;13713;52.552;13.204;2022-10-18T08:06:50;117.10;;;61.80;;
25905;SDS011;13713;52.552;13.204;2022-10-18T08:09:16;112.53;;;62.03;;
25905;SDS011;13713;52.552;13.204;2022-10-18T08:11:41;120.20;;;64.88;;
25905;SDS011;13713;52.552;13.204;2022-10-18T08:14:07;116.47;;;61.28;;
25905;SDS011;13713;52.552;13.204;2022-10-18T08:16:32;109.60;;;58.38;;
25905;SDS011;13713;52.552;13.204;2022-10-18T08:18:58;99.35;;;55.25;;
25905;SDS011;13713;52.552;13.204;2022-10-18T08:21:24;113.15;;;62.17;;
25905;SDS011;13713;52.552;13.204;2022-10-18T08:23:50;120.03;;;63.92;;
25905;SDS011;13713;52.552;13.204;2022-10-18T08:26:18;132.00;;;68.13;;
25905;SDS011;13713;52.552;13.204;2022-10-18T08:28:45;129.15;;;63.92;;
25905;SDS011;13713;52.552;13.204;2022-10-18T08:31:12;128.10;;;62.00;;
25905;SDS011;13713;52.552;13.204;2022-10-18T08:33:41;113.35;;;57.08;;
25905;SDS011;13713;52.552;13.204;2022-10-18T08:36:07;113.57;;;58.25;;
25905;SDS011;13713;52.552;13.204;2022-10-18T08:38:36;118.35;;;59.38;;
25905;SDS011;13713;52.552;13.204;2022-10-18T08:46:47;114.30;;;56.35;;
25905;SDS011;13713;52.552;13.204;2022-10-18T08:52:27;128.77;;;56.95;;
25905;SDS011;13713;52.552;13.204;2022-10-18T08:57:50;117.53;;;56.85;;
25905;SDS011;13713;52.552;13.204;2022-10-18T09:00:17;117.72;;;59.08;;
25905;SDS011;13713;52.552;13.204;2022-10-18T09:05:30;123.30;;;58.42;;
25905;SDS011;13713;52.552;13.204;2022-10-18T09:08:10;131.43;;;68.43;;
25905;SDS011;13713;52.552;13.204;2022-10-18T09:16:26;123.05;;;63.03;;
25905;SDS011;13713;52.552;13.204;2022-10-18T09:21:56;130.75;;;64.63;;
25905;SDS011;13713;52.552;13.204;2022-10-18T09:24:26;127.60;;;63.88;;
25905;SDS011;13713;52.552;13.204;2022-10-18T09:27:03;125.88;;;63.30;;
25905;SDS011;13713;52.552;13.204;2022-10-18T09:35:01;108.60;;;54.00;;
25905;SDS011;13713;52.552;13.204;2022-10-18T09:37:37;109.10;;;52.72;;
25905;SDS011;13713;52.552;13.204;2022-10-18T09:43:02;106.97;;;50.25;;
25905;SDS011;13713;52.552;13.204;2022-10-18T09:45:36;106.10;;;47.92;;
25905;SDS011;13713;52.552;13.204;2022-10-18T09:50:57;109.35;;;50.08;;
25905;SDS011;13713;52.552;13.204;2022-10-18T09:53:31;105.60;;;46.67;;
25905;SDS011;13713;52.552;13.204;2022-10-18T09:56:11;105.03;;;47.65;;
25905;SDS011;13713;52.552;13.204;2022-10-18T09:58:43;92.80;;;43.30;;
25905;SDS011;13713;52.552;13.204;2022-10-18T10:01:31;87.15;;;43.80;;
25905;SDS011;13713;52.552;13.204;2022-10-18T10:03:57;96.50;;;43.13;;
25905;SDS011;13713;52.552;13.204;2022-10-18T10:06:27;96.10;;;40.63;;
25905;SDS011;13713;52.552;13.204;2022-10-18T10:11:33;76.10;;;34.72;;
25905;SDS011;13713;52.552;13.204;2022-10-18T10:14:14;58.53;;;31.83;;
25905;SDS011;13713;52.552;13.204;2022-10-18T10:16:51;46.15;;;23.23;;
25905;SDS011;13713;52.552;13.204;2022-10-18T10:19:18;60.58;;;28.52;;
25905;SDS011;13713;52.552;13.204;2022-10-18T10:21:49;69.75;;;29.35;;
25905;SDS011;13713;52.552;13.204;2022-10-18T10:24:22;54.65;;;29.63;;
25905;SDS011;13713;52.552;13.204;2022-10-18T10:27:17;41.35;;;24.05;;
25905;SDS011;13713;52.552;13.204;2022-10-18T10:32:12;64.93;;;44.15;;
25905;SDS011;13713;52.552;13.204;2022-10-18T10:34:39;51.97;;;34.33;;
25905;SDS011;13713;52.552;13.204;2022-10-18T10:37:20;35.78;;;26.00;;
25905;SDS011;13713;52.552;13.204;2022-10-18T10:40:05;37.45;;;24.60;;
25905;SDS011;13713;52.552;13.204;2022-10-18T10:42:37;38.28;;;24.23;;
25905;SDS011;13713;52.552;13.204;2022-10-18T10:45:21;49.08;;;25.27;;
25905;SDS011;13713;52.552;13.204;2022-10-18T10:47:48;126.88;;;72.55;;
25905;SDS011;13713;52.552;13.204;2022-10-18T10:50:24;61.47;;;36.58;;
25905;SDS011;13713;52.552;13.204;2022-10-18T10:52:52;56.60;;;39.58;;
25905;SDS011;13713;52.552;13.204;2022-10-18T10:55:19;57.42;;;40.75;;
25905;SDS011;13713;52.552;13.204;2022-10-18T10:57:49;43.72;;;24.17;;
25905;SDS011;13713;52.552;13.204;2022-10-18T11:00:36;128.77;;;45.20;;
25905;SDS011;13713;52.552;13.204;2022-10-18T11:05:41;54.78;;;29.02;;
25905;SDS011;13713;52.552;13.204;2022-10-18T11:08:14;48.97;;;26.50;;
25905;SDS011;13713;52.552;13.204;2022-10-18T11:16:35;67.53;;;35.72;;
25905;SDS011;13713;52.552;13.204;2022-10-18T11:19:08;72.43;;;36.53;;
25905;SDS011;13713;52.552;13.204;2022-10-18T11:21:42;60.00;;;33.17;;
25905;SDS011;13713;52.552;13.204;2022-10-18T11:24:09;57.45;;;30.58;;
25905;SDS011;13713;52.552;13.204;2022-10-18T11:26:46;50.10;;;26.65;;
25905;SDS011;13713;52.552;13.204;2022-10-18T11:29:28;45.05;;;23.17;;
25905;SDS011;13713;52.552;13.204;2022-10-18T11:32:07;44.05;;;23.38;;
25905;SDS011;13713;52.552;13.204;2022-10-18T12:01:51;45.13;;;26.98;;
25905;SDS011;13713;52.552;13.204;2022-10-18T12:04:35;46.75;;;24.23;;
25905;SDS011;13713;52.552;13.204;2022-10-18T12:07:06;83.47;;;43.78;;
25905;SDS011;13713;52.552;13.204;2022-10-18T12:09:38;59.78;;;34.17;;
25905;SDS011;13713;52.552;13.204;2022-10-18T12:12:25;46.85;;;28.27;;
25905;SDS011;13713;52.552;13.204;2022-10-18T12:19:56;61.35;;;41.08;;
25905;SDS011;13713;52.552;13.204;2022-10-18T12:22:26;81.22;;;50.70;;
25905;SDS011;13713;52.552;13.204;2022-10-18T12:24:56;85.65;;;49.80;;
25905;SDS011;13713;52.552;13.204;2022-10-18T12:27:56;70.85;;;42.70;;
25905;SDS011;13713;52.552;13.204;2022-10-18T12:30:40;72.90;;;41.20;;
25905;SDS011;13713;52.552;13.204;2022-10-18T12:33:17;67.40;;;37.92;;
25905;SDS011;13713;52.552;13.204;2022-10-18T12:35:59;137.35;;;84.60;;
25905;SDS011;13713;52.552;13.204;2022-10-18T12:38:28;105.55;;;60.20;;
25905;SDS011;13713;52.552;13.204;2022-10-18T12:40:56;82.53;;;48.45;;
25905;SDS011;13713;52.552;13.204;2022-10-18T12:43:24;84.93;;;49.70;;
25905;SDS011;13713;52.552;13.204;2022-10-18T12:45:57;78.45;;;49.25;;
25905;SDS011;13713;52.552;13.204;2022-10-18T12:48:31;113.50;;;63.50;;
25905;SDS011;13713;52.552;13.204;2022-10-18T12:53:45;94.80;;;54.83;;
25905;SDS011;13713;52.552;13.204;2022-10-18T13:09:41;52.03;;;29.05;;
25905;SDS011;13713;52.552;13.204;2022-10-18T13:15:03;48.40;;;27.15;;
25905;SDS011;13713;52.552;13.204;2022-10-18T13:20:31;53.88;;;28.40;;
25905;SDS011;13713;52.552;13.204;2022-10-18T13:38:43;52.88;;;29.30;;
25905;SDS011;13713;52.552;13.204;2022-10-18T13:41:15;52.00;;;27.83;;
25905;SDS011;13713;52.552;13.204;2022-10-18T13:43:57;94.72;;;55.90;;
25905;SDS011;13713;52.552;13.204;2022-10-18T14:06:05;66.60;;;33.67;;
25905;SDS011;13713;52.552;13.204;2022-10-18T14:08:35;63.13;;;32.67;;
25905;SDS011;13713;52.552;13.204;2022-10-18T14:14:13;64.47;;;30.58;;
25905;SDS011;13713;52.552;13.204;2022-10-18T14:19:37;65.90;;;31.50;;
25905;SDS011;13713;52.552;13.204;2022-10-18T14:22:13;71.68;;;35.30;;
25905;SDS011;13713;52.552;13.204;2022-10-18T14:24:44;75.35;;;39.85;;
25905;SDS011;13713;52.552;13.204;2022-10-18T14:27:15;116.55;;;61.45;;
25905;SDS011;13713;52.552;13.204;2022-10-18T14:29:41;80.50;;;46.55;;
25905;SDS011;13713;52.552;13.204;2022-10-18T14:32:13;78.38;;;42.08;;
25905;SDS011;13713;52.552;13.204;2022-10-18T14:34:55;64.45;;;37.88;;
25905;SDS011;13713;52.552;13.204;2022-10-18T14:37:29;62.63;;;36.67;;
25905;SDS011;13713;52.552;13.204;2022-10-18T14:39:59;64.95;;;36.65;;
25905;SDS011;13713;52.552;13.204;2022-10-18T14:42:26;67.53;;;35.97;;
25905;SDS011;13713;52.552;13.204;2022-10-18T14:44:53;79.40;;;41.75;;
25905;SDS011;13713;52.552;13.204;2022-10-18T14:49:46;143.63;;;86.00;;
25905;SDS011;13713;52.552;13.204;2022-10-18T14:52:14;91.30;;;49.35;;
25905;SDS011;13713;52.552;13.204;2022-10-18T14:54:42;80.47;;;39.70;;
25905;SDS011;13713;52.552;13.204;2022-10-18T14:57:14;86.30;;;41.00;;
25905;SDS011;13713;52.552;13.204;2022-10-18T14:59:47;97.72;;;41.08;;
25905;SDS011;13713;52.552;13.204;2022-10-18T15:02:20;73.63;;;36.35;;
25905;SDS011;13713;52.552;13.204;2022-10-18T15:04:55;84.43;;;39.05;;
25905;SDS011;13713;52.552;13.204;2022-10-18T15:07:29;94.95;;;38.90;;
25905;SDS011;13713;52.552;13.204;2022-10-18T15:09:57;70.68;;;35.85;;
25905;SDS011;13713;52.552;13.204;2022-10-18T15:12:25;65.30;;;32.55;;
25905;SDS011;13713;52.552;13.204;2022-10-18T15:14:53;73.07;;;32.17;;
25905;SDS011;13713;52.552;13.204;2022-10-18T15:17:25;79.03;;;35.65;;
25905;SDS011;13713;52.552;13.204;2022-10-18T15:19:57;68.63;;;33.20;;
25905;SDS011;13713;52.552;13.204;2022-10-18T15:22:27;72.28;;;33.95;;
25905;SDS011;13713;52.552;13.204;2022-10-18T15:27:42;89.78;;;38.40;;
25905;SDS011;13713;52.552;13.204;2022-10-18T15:30:17;82.93;;;35.75;;
25905;SDS011;13713;52.552;13.204;2022-10-18T15:32:47;168.77;;;106.78;;
25905;SDS011;13713;52.552;13.204;2022-10-18T15:35:19;179.32;;;113.75;;
25905;SDS011;13713;52.552;13.204;2022-10-18T15:37:48;213.05;;;117.10;;
25905;SDS011;13713;52.552;13.204;2022-10-18T15:40:27;74.20;;;38.38;;
25905;SDS011;13713;52.552;13.204;2022-10-18T15:47:59;106.43;;;49.50;;
25905;SDS011;13713;52.552;13.204;2022-10-18T15:53:23;118.15;;;53.45;;
25905;SDS011;13713;52.552;13.204;2022-10-18T15:56:11;136.98;;;58.38;;
25905;SDS011;13713;52.552;13.204;2022-10-18T15:58:49;137.77;;;61.30;;
25905;SDS011;13713;52.552;13.204;2022-10-18T16:01:20;139.18;;;62.67;;
25905;SDS011;13713;52.552;13.204;2022-10-18T16:03:46;151.85;;;65.00;;
25905;SDS011;13713;52.552;13.204;2022-10-18T16:06:13;156.65;;;69.15;;
25905;SDS011;13713;52.552;13.204;2022-10-18T16:08:44;161.15;;;73.35;;
25905;SDS011;13713;52.552;13.204;2022-10-18T16:11:22;165.50;;;72.63;;
25905;SDS011;13713;52.552;13.204;2022-10-18T16:13:49;182.57;;;75.05;;
25905;SDS011;13713;52.552;13.204;2022-10-18T16:16:20;176.45;;;74.72;;
25905;SDS011;13713;52.552;13.204;2022-10-18T16:18:51;181.95;;;78.65;;
25905;SDS011;13713;52.552;13.204;2022-10-18T16:21:33;190.40;;;77.15;;
25905;SDS011;13713;52.552;13.204;2022-10-18T16:24:00;184.52;;;82.07;;
25905;SDS011;13713;52.552;13.204;2022-10-18T16:26:26;180.05;;;77.03;;
25905;SDS011;13713;52.552;13.204;2022-10-18T16:28:52;175.45;;;78.57;;
25905;SDS011;13713;52.552;13.204;2022-10-18T16:31:22;195.40;;;83.50;;
25905;SDS011;13713;52.552;13.204;2022-10-18T16:33:50;194.55;;;81.35;;
25905;SDS011;13713;52.552;13.204;2022-10-18T16:36:18;187.55;;;79.60;;
25905;SDS011;13713;52.552;13.204;2022-10-18T16:38:45;198.38;;;83.18;;
25905;SDS011;13713;52.552;13.204;2022-10-18T16:41:11;171.63;;;74.68;;
25905;SDS011;13713;52.552;13.204;2022-10-18T16:43:37;192.90;;;81.45;;
25905;SDS011;13713;52.552;13.204;2022-10-18T16:46:04;194.20;;;80.18;;
25905;SDS011;13713;52.552;13.204;2022-10-18T16:48:31;200.13;;;81.07;;
25905;SDS011;13713;52.552;13.204;2022-10-18T16:50:57;184.43;;;77.18;;
25905;SDS011;13713;52.552;13.204;2022-10-18T16:53:23;191.98;;;78.07;;
25905;SDS011;13713;52.552;13.204;2022-10-18T16:55:53;193.32;;;82.57;;
25905;SDS011;13713;52.552;13.204;2022-10-18T16:58:22;205.45;;;79.07;;
25905;SDS011;13713;52.552;13.204;2022-10-18T17:00:49;202.43;;;82.47;;
25905;SDS011;13713;52.552;13.204;2022-10-18T17:03:15;200.82;;;81.50;;
25905;SDS011;13713;52.552;13.204;2022-10-18T17:05:41;185.30;;;75.70;;
25905;SDS011;13713;52.552;13.204;2022-10-18T17:08:08;188.65;;;77.75;;
25905;SDS011;13713;52.552;13.204;2022-10-18T17:10:45;205.35;;;82.05;;
25905;SDS011;13713;52.552;13.204;2022-10-18T17:13:14;212.52;;;83.22;;
25905;SDS011;13713;52.552;13.204;2022-10-18T17:15:39;185.48;;;78.30;;
25905;SDS011;13713;52.552;13.204;2022-10-18T17:18:09;206.32;;;83.50;;
25905;SDS011;13713;52.552;13.204;2022-10-18T17:20:36;202.93;;;78.57;;